Time;durP1;ratioP1;P1;durP2;ratioP2;P2;SDS_P1;SDS_P2;PMS_P1;PMS_P2;Temp;Humidity;BMP_temperature;BMP_pressure;BME280_temperature;BME280_humidity;BME280_pressure;Samples;Min_cycle;Max_cycle;Signal;HPM_P1;HPM_P2
2023/05/05 00:00:07;;;;;;;12.70;8.73;;;;;;;;;;5021438;28;20018;-78
2023/05/05 00:02:33;;;;;;;17.23;15.77;;;;;;;;;;5004146;28;20037;-77
2023/05/05 00:04:58;;;;;;;16.50;14.95;;;;;;;;;;5021806;28;20113;-78
2023/05/05 00:07:23;;;;;;;15.38;13.98;;;;;;;;;;5022958;28;20544;-78
2023/05/05 00:09:48;;;;;;;19.30;15.10;;;;;;;;;;5005606;28;20551;-78
2023/05/05 00:12:14;;;;;;;16.50;13.65;;;;;;;;;;5023691;28;20036;-78
2023/05/05 00:14:39;;;;;;;13.23;11.93;;;;;;;;;;5022992;28;20550;-77
2023/05/05 00:17:05;;;;;;;12.27;11.00;;;;;;;;;;5023500;28;20513;-78
2023/05/05 00:19:30;;;;;;;10.35;9.13;;;;;;;;;;5022574;28;20095;-77
2023/05/05 00:21:55;;;;;;;10.52;9.38;;;;;;;;;;5024089;28;20113;-78
2023/05/05 00:24:21;;;;;;;11.07;9.23;;;;;;;;;;5023138;28;20025;-76
2023/05/05 00:26:46;;;;;;;9.95;8.77;;;;;;;;;;5023678;28;20092;-77
2023/05/05 00:29:11;;;;;;;11.18;10.07;;;;;;;;;;5023225;28;20671;-77
2023/05/05 00:31:36;;;;;;;10.00;9.00;;;;;;;;;;5022192;28;20029;-77
2023/05/05 00:34:02;;;;;;;10.88;9.05;;;;;;;;;;5003497;28;20028;-77
2023/05/05 00:36:27;;;;;;;9.63;8.75;;;;;;;;;;5020816;28;20033;-77
2023/05/05 00:38:52;;;;;;;9.80;8.50;;;;;;;;;;5021306;28;20021;-77
2023/05/05 00:41:18;;;;;;;8.98;8.07;;;;;;;;;;5020802;28;20123;-76
2023/05/05 00:43:43;;;;;;;8.82;8.13;;;;;;;;;;5021294;28;20483;-76
2023/05/05 00:46:13;;;;;;;9.55;8.65;;;;;;;;;;5021836;28;20014;-76
2023/05/05 00:48:39;;;;;;;12.52;8.18;;;;;;;;;;5021950;28;20155;-76
2023/05/05 00:51:07;;;;;;;9.60;8.70;;;;;;;;;;5022253;28;20017;-77
2023/05/05 00:53:33;;;;;;;10.15;9.15;;;;;;;;;;5003851;28;20171;-77
2023/05/05 00:55:58;;;;;;;11.43;10.48;;;;;;;;;;5021739;28;20101;-77
2023/05/05 00:58:24;;;;;;;11.07;9.95;;;;;;;;;;5022635;28;20460;-77
2023/05/05 01:00:49;;;;;;;12.20;10.38;;;;;;;;;;5022068;28;20031;-76
2023/05/05 01:03:14;;;;;;;10.80;9.65;;;;;;;;;;5022238;28;20635;-76
2023/05/05 01:06:00;;;;;;;11.57;10.13;;;;;;;;;;5021949;28;20794;-76
2023/05/05 01:08:48;;;;;;;11.18;9.88;;;;;;;;;;5021238;28;20108;-76
2023/05/05 01:11:25;;;;;;;12.88;10.55;;;;;;;;;;5011204;28;20065;-76
2023/05/05 01:13:56;;;;;;;9.43;7.85;;;;;;;;;;5020583;28;20174;-76
2023/05/05 01:16:30;;;;;;;10.18;9.18;;;;;;;;;;5021375;28;20036;-76
2023/05/05 01:18:58;;;;;;;13.88;10.30;;;;;;;;;;5020208;28;20029;-76
2023/05/05 01:21:28;;;;;;;11.68;9.77;;;;;;;;;;5019705;28;20025;-76
2023/05/05 01:23:56;;;;;;;12.80;9.18;;;;;;;;;;5020394;28;20037;-77
2023/05/05 01:26:27;;;;;;;9.70;8.80;;;;;;;;;;5020375;28;20026;-77
2023/05/05 01:28:58;;;;;;;12.30;8.60;;;;;;;;;;5021504;28;20040;-76
2023/05/05 01:31:42;;;;;;;10.98;9.95;;;;;;;;;;5007951;28;20052;-76
2023/05/05 01:34:08;;;;;;;12.82;10.20;;;;;;;;;;5021932;28;20030;-77
2023/05/05 01:36:38;;;;;;;12.57;9.25;;;;;;;;;;5022355;28;20499;-77
2023/05/05 01:39:05;;;;;;;10.48;9.52;;;;;;;;;;5022091;28;20045;-77
2023/05/05 01:41:39;;;;;;;10.90;9.90;;;;;;;;;;5004233;28;20101;-76
2023/05/05 01:44:06;;;;;;;12.90;11.57;;;;;;;;;;5021138;28;20136;-76
2023/05/05 01:46:33;;;;;;;15.02;13.52;;;;;;;;;;5021536;28;20025;-76
2023/05/05 01:48:58;;;;;;;17.13;15.32;;;;;;;;;;5020268;28;20076;-76
2023/05/05 01:51:26;;;;;;;17.67;13.68;;;;;;;;;;5020879;28;20060;-76
2023/05/05 01:53:51;;;;;;;16.80;13.85;;;;;;;;;;5020483;28;20047;-76
2023/05/05 01:56:17;;;;;;;17.90;15.70;;;;;;;;;;5009478;28;20025;-76
2023/05/05 01:58:43;;;;;;;17.60;14.68;;;;;;;;;;5016955;28;20514;-76
2023/05/05 02:01:10;;;;;;;15.90;14.30;;;;;;;;;;5023259;28;20022;-77
2023/05/05 02:03:36;;;;;;;15.95;14.35;;;;;;;;;;5023960;28;20471;-76
2023/05/05 02:06:02;;;;;;;16.73;15.07;;;;;;;;;;5023158;28;20053;-76
2023/05/05 02:08:28;;;;;;;15.20;13.73;;;;;;;;;;5023528;28;20502;-76
2023/05/05 02:10:54;;;;;;;17.15;15.45;;;;;;;;;;5022671;28;20033;-77
2023/05/05 02:13:21;;;;;;;17.95;15.88;;;;;;;;;;5004999;28;20809;-76
2023/05/05 02:15:47;;;;;;;17.75;15.85;;;;;;;;;;5022402;28;20064;-76
2023/05/05 02:18:13;;;;;;;18.92;16.75;;;;;;;;;;5016862;28;20018;-76
2023/05/05 02:20:38;;;;;;;19.50;17.40;;;;;;;;;;5021392;28;20017;-76
2023/05/05 02:23:06;;;;;;;19.77;17.00;;;;;;;;;;5021462;28;20046;-77
2023/05/05 02:25:35;;;;;;;18.75;16.42;;;;;;;;;;5023269;28;20061;-77
2023/05/05 02:28:01;;;;;;;20.65;18.48;;;;;;;;;;5021714;28;20060;-77
2023/05/05 02:30:30;;;;;;;18.52;16.30;;;;;;;;;;5023276;28;20541;-76
2023/05/05 02:33:00;;;;;;;18.08;16.25;;;;;;;;;;5024246;28;20017;-78
2023/05/05 02:35:29;;;;;;;18.38;16.38;;;;;;;;;;5025020;28;20037;-77
2023/05/05 02:37:58;;;;;;;19.17;17.20;;;;;;;;;;5024392;28;20025;-77
2023/05/05 02:40:25;;;;;;;16.55;14.65;;;;;;;;;;5024210;28;20514;-77
2023/05/05 02:42:53;;;;;;;18.30;16.48;;;;;;;;;;5023769;28;20112;-77
2023/05/05 02:45:19;;;;;;;20.60;17.58;;;;;;;;;;5024009;28;20103;-77
2023/05/05 02:47:44;;;;;;;19.58;16.85;;;;;;;;;;5024016;28;20057;-77
2023/05/05 02:50:10;;;;;;;18.83;16.95;;;;;;;;;;5005497;28;20052;-77
2023/05/05 02:52:35;;;;;;;21.95;17.88;;;;;;;;;;5024443;28;20030;-77
2023/05/05 02:55:01;;;;;;;19.55;17.45;;;;;;;;;;5023630;28;20463;-77
2023/05/05 02:57:50;;;;;;;18.60;16.70;;;;;;;;;;5024204;28;20703;-77
2023/05/05 03:00:18;;;;;;;20.40;18.15;;;;;;;;;;5012329;28;20047;-77
2023/05/05 03:02:54;;;;;;;22.30;19.77;;;;;;;;;;5024107;28;20181;-76
2023/05/05 03:05:24;;;;;;;23.92;19.45;;;;;;;;;;5008666;28;20411;-77
2023/05/05 03:08:01;;;;;;;20.63;17.83;;;;;;;;;;5025959;28;20018;-77
2023/05/05 03:10:28;;;;;;;19.02;16.33;;;;;;;;;;5025466;28;20056;-77
2023/05/05 03:12:56;;;;;;;20.35;18.27;;;;;;;;;;5005912;28;20025;-77
2023/05/05 03:15:23;;;;;;;22.42;19.58;;;;;;;;;;5025184;28;20565;-77
2023/05/05 03:17:49;;;;;;;19.65;17.63;;;;;;;;;;5024683;28;20049;-77
2023/05/05 03:20:14;;;;;;;20.20;18.05;;;;;;;;;;5025586;28;20098;-77
2023/05/05 03:22:40;;;;;;;23.67;18.55;;;;;;;;;;5024780;28;20037;-76
2023/05/05 03:25:06;;;;;;;19.42;17.00;;;;;;;;;;5007143;28;20092;-76
2023/05/05 03:27:31;;;;;;;21.90;17.27;;;;;;;;;;5025062;28;20036;-77
2023/05/05 03:29:56;;;;;;;17.63;15.85;;;;;;;;;;5024773;28;20085;-77
2023/05/05 03:32:22;;;;;;;19.30;17.35;;;;;;;;;;4991452;28;20124;-77
2023/05/05 03:34:48;;;;;;;17.83;15.93;;;;;;;;;;5024769;28;20071;-77
2023/05/05 03:37:13;;;;;;;17.92;16.23;;;;;;;;;;5024606;28;20017;-77
2023/05/05 03:39:39;;;;;;;17.90;16.15;;;;;;;;;;5024468;28;20013;-77
2023/05/05 03:42:04;;;;;;;16.73;15.05;;;;;;;;;;5024993;28;20083;-77
2023/05/05 03:44:29;;;;;;;17.25;15.40;;;;;;;;;;5024033;28;20029;-77
2023/05/05 03:46:55;;;;;;;17.08;15.38;;;;;;;;;;5024644;28;20017;-77
2023/05/05 03:49:20;;;;;;;16.70;15.10;;;;;;;;;;5023653;28;20018;-78
2023/05/05 03:51:46;;;;;;;19.73;15.87;;;;;;;;;;5024280;28;20101;-77
2023/05/05 03:54:11;;;;;;;18.95;15.55;;;;;;;;;;5023489;28;20256;-78
2023/05/05 03:56:36;;;;;;;18.30;16.50;;;;;;;;;;5023757;28;20044;-77
2023/05/05 03:59:02;;;;;;;17.98;14.85;;;;;;;;;;5024314;28;20074;-78
2023/05/05 04:01:28;;;;;;;16.77;15.13;;;;;;;;;;5024688;28;20025;-78
2023/05/05 04:03:55;;;;;;;16.65;14.95;;;;;;;;;;5024594;28;20021;-78
2023/05/05 04:06:20;;;;;;;19.05;16.10;;;;;;;;;;5006399;28;20477;-78
2023/05/05 04:08:45;;;;;;;16.10;14.50;;;;;;;;;;5024558;28;20080;-78
2023/05/05 04:11:11;;;;;;;16.33;14.82;;;;;;;;;;5024594;28;20082;-78
2023/05/05 04:13:36;;;;;;;16.38;14.45;;;;;;;;;;5023686;28;20025;-78
2023/05/05 04:16:01;;;;;;;16.60;15.10;;;;;;;;;;5023215;28;20029;-78
2023/05/05 04:18:27;;;;;;;17.08;15.48;;;;;;;;;;5024294;28;20036;-78
2023/05/05 04:20:52;;;;;;;19.20;17.17;;;;;;;;;;5024423;28;20052;-78
2023/05/05 04:23:17;;;;;;;18.15;15.95;;;;;;;;;;5024462;28;20029;-78
2023/05/05 04:25:43;;;;;;;18.30;15.85;;;;;;;;;;5022475;28;20013;-79
2023/05/05 04:28:08;;;;;;;18.23;15.75;;;;;;;;;;5005759;28;20398;-78
2023/05/05 04:30:33;;;;;;;17.73;15.90;;;;;;;;;;5005638;28;20029;-78
2023/05/05 04:32:58;;;;;;;15.35;13.95;;;;;;;;;;5010462;28;20138;-78
2023/05/05 04:35:24;;;;;;;18.60;14.55;;;;;;;;;;5023608;28;20018;-78
2023/05/05 04:37:50;;;;;;;14.57;13.18;;;;;;;;;;5006018;28;20029;-78
2023/05/05 04:40:15;;;;;;;14.52;13.02;;;;;;;;;;5023139;28;20065;-78
2023/05/05 04:42:40;;;;;;;14.07;12.77;;;;;;;;;;5005581;28;20033;-78
2023/05/05 04:45:07;;;;;;;13.57;12.25;;;;;;;;;;5023833;28;20017;-78
2023/05/05 04:47:35;;;;;;;15.30;13.68;;;;;;;;;;5005172;28;20025;-78
2023/05/05 04:50:00;;;;;;;13.70;12.30;;;;;;;;;;5023294;28;20056;-78
2023/05/05 04:52:26;;;;;;;14.27;12.88;;;;;;;;;;5021923;28;20545;-78
2023/05/05 04:54:51;;;;;;;13.13;12.00;;;;;;;;;;5022733;28;20029;-78
2023/05/05 04:57:16;;;;;;;13.23;11.90;;;;;;;;;;5023050;28;20063;-78
2023/05/05 04:59:42;;;;;;;14.15;12.85;;;;;;;;;;5022959;28;20021;-78
2023/05/05 05:02:07;;;;;;;15.52;14.02;;;;;;;;;;5023233;28;20028;-78
2023/05/05 05:04:32;;;;;;;15.38;13.77;;;;;;;;;;5022261;28;20083;-78
2023/05/05 05:06:58;;;;;;;14.50;13.10;;;;;;;;;;5022909;28;20611;-78
2023/05/05 05:09:23;;;;;;;14.15;12.75;;;;;;;;;;5022627;28;20024;-78
2023/05/05 05:11:48;;;;;;;14.13;12.90;;;;;;;;;;5005706;28;20068;-77
2023/05/05 05:14:14;;;;;;;14.05;12.70;;;;;;;;;;5022012;28;20396;-77
2023/05/05 05:16:39;;;;;;;14.90;13.35;;;;;;;;;;5022316;28;20079;-78
2023/05/05 05:19:04;;;;;;;17.00;14.30;;;;;;;;;;5021957;28;20017;-77
2023/05/05 05:21:30;;;;;;;13.88;12.40;;;;;;;;;;5023283;28;20030;-77
2023/05/05 05:23:55;;;;;;;12.43;11.18;;;;;;;;;;5022046;28;20101;-77
2023/05/05 05:26:21;;;;;;;12.77;11.55;;;;;;;;;;5023325;28;20244;-78
2023/05/05 05:28:46;;;;;;;13.40;11.95;;;;;;;;;;5026444;28;20025;-78
2023/05/05 05:31:12;;;;;;;12.05;10.98;;;;;;;;;;5026584;28;20022;-79
2023/05/05 05:33:37;;;;;;;13.38;12.23;;;;;;;;;;5007907;28;20025;-78
2023/05/05 05:36:02;;;;;;;12.00;11.00;;;;;;;;;;5029201;28;20430;-78
2023/05/05 05:38:27;;;;;;;12.00;10.82;;;;;;;;;;5007398;28;20081;-78
2023/05/05 05:40:53;;;;;;;12.00;10.88;;;;;;;;;;5030145;28;20044;-80
2023/05/05 05:43:18;;;;;;;12.25;11.25;;;;;;;;;;5036516;28;20029;-79
2023/05/05 05:45:43;;;;;;;11.80;10.80;;;;;;;;;;5016631;28;20018;-80
2023/05/05 05:48:09;;;;;;;12.15;10.85;;;;;;;;;;5034794;28;20021;-79
2023/05/05 05:50:35;;;;;;;11.48;10.57;;;;;;;;;;5020300;28;20020;-78
2023/05/05 05:53:00;;;;;;;11.05;10.15;;;;;;;;;;5032346;28;20522;-79
2023/05/05 05:55:25;;;;;;;11.48;10.48;;;;;;;;;;5012799;28;20037;-79
2023/05/05 05:57:51;;;;;;;10.95;10.02;;;;;;;;;;5030431;28;20476;-79
2023/05/05 06:00:16;;;;;;;11.52;10.63;;;;;;;;;;5029807;28;20047;-79
2023/05/05 06:02:42;;;;;;;11.63;10.50;;;;;;;;;;5025344;28;20128;-77
2023/05/05 06:05:07;;;;;;;12.18;11.13;;;;;;;;;;5024536;28;20045;-78
2023/05/05 06:07:32;;;;;;;10.60;9.75;;;;;;;;;;5020643;28;20053;-79
2023/05/05 06:09:58;;;;;;;11.85;10.70;;;;;;;;;;5022554;28;20026;-79
2023/05/05 06:12:23;;;;;;;11.82;10.90;;;;;;;;;;5007593;28;20025;-78
2023/05/05 06:14:48;;;;;;;11.88;10.88;;;;;;;;;;5025792;28;20024;-79
2023/05/05 06:17:13;;;;;;;12.55;11.30;;;;;;;;;;5039052;28;20029;-79
2023/05/05 06:19:39;;;;;;;11.83;10.73;;;;;;;;;;5013092;28;20021;-79
2023/05/05 06:22:05;;;;;;;11.20;10.40;;;;;;;;;;5023934;28;20272;-78
2023/05/05 06:24:30;;;;;;;11.63;10.73;;;;;;;;;;5022139;28;20026;-80
2023/05/05 06:26:58;;;;;;;14.85;11.00;;;;;;;;;;5019543;28;20382;-78
2023/05/05 06:29:23;;;;;;;11.40;10.50;;;;;;;;;;5011742;28;20017;-79
2023/05/05 06:31:48;;;;;;;11.88;10.30;;;;;;;;;;5008907;28;20111;-78
2023/05/05 06:34:14;;;;;;;12.02;11.05;;;;;;;;;;5024230;28;20367;-79
2023/05/05 06:36:39;;;;;;;10.55;9.65;;;;;;;;;;5014885;28;20032;-78
2023/05/05 06:39:04;;;;;;;11.52;10.63;;;;;;;;;;5026908;28;20083;-80
2023/05/05 06:41:29;;;;;;;10.98;10.05;;;;;;;;;;5032902;28;20010;-80
2023/05/05 06:43:55;;;;;;;11.10;10.00;;;;;;;;;;5020715;28;20133;-79
2023/05/05 06:46:20;;;;;;;11.60;10.23;;;;;;;;;;5017972;28;20041;-81
2023/05/05 06:48:45;;;;;;;13.80;10.15;;;;;;;;;;5025838;28;20032;-80
2023/05/05 06:51:10;;;;;;;10.55;9.52;;;;;;;;;;5058930;28;20021;-82
2023/05/05 06:53:36;;;;;;;10.25;9.18;;;;;;;;;;5039013;28;20051;-81
2023/05/05 06:56:04;;;;;;;8.85;8.15;;;;;;;;;;5016088;28;20044;-83
2023/05/05 06:58:30;;;;;;;8.65;7.90;;;;;;;;;;5013455;28;20092;-85
2023/05/05 07:00:55;;;;;;;7.97;7.18;;;;;;;;;;5004861;28;20487;-83
2023/05/05 07:03:20;;;;;;;7.73;7.03;;;;;;;;;;5020977;28;20033;-81
2023/05/05 07:05:46;;;;;;;6.63;6.13;;;;;;;;;;5011021;28;20501;-82
2023/05/05 07:08:11;;;;;;;5.57;5.07;;;;;;;;;;4990425;28;20037;-82
2023/05/05 07:10:37;;;;;;;6.70;5.93;;;;;;;;;;5001488;28;20029;-81
2023/05/05 07:13:02;;;;;;;6.20;5.70;;;;;;;;;;5021352;28;20466;-78
2023/05/05 07:15:27;;;;;;;5.90;5.05;;;;;;;;;;4985939;28;20033;-77
2023/05/05 07:17:52;;;;;;;6.68;4.07;;;;;;;;;;5021375;28;20017;-78
2023/05/05 07:20:18;;;;;;;3.95;3.65;;;;;;;;;;5020901;28;20061;-77
2023/05/05 07:22:43;;;;;;;3.90;3.60;;;;;;;;;;5008639;28;20124;-79
2023/05/05 07:25:08;;;;;;;5.20;4.00;;;;;;;;;;5006944;28;20037;-77
2023/05/05 07:27:34;;;;;;;3.25;3.05;;;;;;;;;;5007266;28;20100;-79
2023/05/05 07:30:00;;;;;;;3.20;2.90;;;;;;;;;;5006339;28;20030;-76
2023/05/05 07:32:25;;;;;;;2.95;2.67;;;;;;;;;;5012182;28;20035;-77
2023/05/05 07:34:51;;;;;;;2.88;2.67;;;;;;;;;;5020321;28;20060;-75
2023/05/05 07:37:16;;;;;;;3.45;2.78;;;;;;;;;;5019706;28;20013;-79
2023/05/05 07:39:41;;;;;;;2.85;2.63;;;;;;;;;;5021032;28;20033;-78
2023/05/05 07:42:07;;;;;;;5.47;3.33;;;;;;;;;;5001496;28;20051;-77
2023/05/05 07:44:32;;;;;;;3.17;2.97;;;;;;;;;;5003123;28;20044;-76
2023/05/05 07:46:59;;;;;;;5.50;4.20;;;;;;;;;;5002459;28;20056;-77
2023/05/05 07:49:24;;;;;;;16.47;8.47;;;;;;;;;;5019312;28;20021;-78
2023/05/05 07:51:49;;;;;;;3.78;3.47;;;;;;;;;;5019419;28;20680;-77
2023/05/05 07:54:16;;;;;;;8.02;4.95;;;;;;;;;;5001590;28;20496;-77
2023/05/05 07:56:41;;;;;;;3.97;3.67;;;;;;;;;;5020567;28;20026;-77
2023/05/05 07:59:06;;;;;;;4.10;3.80;;;;;;;;;;5000369;28;20136;-79
2023/05/05 08:01:32;;;;;;;4.20;3.90;;;;;;;;;;4999913;28;20025;-79
2023/05/05 08:03:57;;;;;;;3.92;3.63;;;;;;;;;;5020222;28;20029;-77
2023/05/05 08:06:23;;;;;;;3.55;3.25;;;;;;;;;;5020936;28;20493;-77
2023/05/05 08:08:49;;;;;;;3.45;3.22;;;;;;;;;;5020438;28;20018;-76
2023/05/05 08:11:15;;;;;;;4.03;3.72;;;;;;;;;;5020852;28;20036;-76
2023/05/05 08:13:44;;;;;;;4.72;4.43;;;;;;;;;;5020309;28;20067;-77
2023/05/05 08:16:10;;;;;;;4.57;4.28;;;;;;;;;;5019852;28;20076;-77
2023/05/05 08:18:36;;;;;;;3.95;3.65;;;;;;;;;;5020319;28;20021;-77
2023/05/05 08:21:07;;;;;;;4.40;4.10;;;;;;;;;;5019990;28;20021;-75
2023/05/05 08:23:33;;;;;;;4.15;3.85;;;;;;;;;;5019979;28;20037;-76
2023/05/05 08:25:59;;;;;;;4.43;3.30;;;;;;;;;;5019857;28;20028;-77
2023/05/05 08:28:24;;;;;;;3.85;3.50;;;;;;;;;;5009354;28;20026;-77
2023/05/05 08:30:49;;;;;;;3.65;3.35;;;;;;;;;;5015054;28;20124;-78
2023/05/05 08:33:15;;;;;;;3.58;3.38;;;;;;;;;;5019819;28;20053;-77
2023/05/05 08:35:41;;;;;;;3.40;3.20;;;;;;;;;;5020073;28;20033;-77
2023/05/05 08:38:06;;;;;;;3.63;3.42;;;;;;;;;;5020120;28;20494;-80
2023/05/05 08:40:35;;;;;;;3.57;3.27;;;;;;;;;;5020247;28;20022;-79
2023/05/05 08:43:00;;;;;;;3.85;3.53;;;;;;;;;;5019400;28;20302;-80
2023/05/05 08:45:27;;;;;;;3.72;3.13;;;;;;;;;;5020142;28;20029;-79
2023/05/05 08:47:54;;;;;;;3.72;3.50;;;;;;;;;;5019781;28;20095;-78
2023/05/05 08:50:22;;;;;;;4.00;3.70;;;;;;;;;;5019918;28;20014;-78
2023/05/05 08:52:52;;;;;;;3.15;2.95;;;;;;;;;;5000440;28;20045;-80
2023/05/05 08:55:30;;;;;;;3.15;2.95;;;;;;;;;;5003984;28;20499;-78
2023/05/05 08:57:56;;;;;;;3.40;3.10;;;;;;;;;;5001948;28;20042;-80
2023/05/05 09:00:22;;;;;;;3.50;3.20;;;;;;;;;;4992629;28;20025;-80
2023/05/05 09:02:48;;;;;;;3.50;3.25;;;;;;;;;;5006346;28;20068;-79
2023/05/05 09:05:13;;;;;;;3.95;3.63;;;;;;;;;;5004912;28;20557;-80
2023/05/05 09:07:42;;;;;;;3.53;3.25;;;;;;;;;;5013000;28;20030;-79
2023/05/05 09:10:07;;;;;;;;;;;;;;;;;;5015510;28;20100;-80
2023/05/05 09:12:33;;;;;;;2.80;2.60;;;;;;;;;;5011459;28;20224;-81
2023/05/05 09:15:02;;;;;;;4.20;3.20;;;;;;;;;;5009220;28;20026;-78
2023/05/05 09:17:27;;;;;;;4.78;3.45;;;;;;;;;;5006755;28;20034;-79
2023/05/05 09:20:03;;;;;;;3.85;3.53;;;;;;;;;;4989394;28;20735;-79
2023/05/05 09:22:32;;;;;;;3.85;3.55;;;;;;;;;;4989636;28;20588;-78
2023/05/05 09:24:58;;;;;;;3.45;3.25;;;;;;;;;;5004211;28;20067;-79
2023/05/05 09:27:23;;;;;;;4.13;3.70;;;;;;;;;;5006961;28;20530;-80
2023/05/05 09:29:49;;;;;;;3.92;3.20;;;;;;;;;;5021893;28;20071;-77
2023/05/05 09:32:15;;;;;;;3.00;2.80;;;;;;;;;;5021546;28;20489;-77
2023/05/05 09:34:40;;;;;;;3.30;3.00;;;;;;;;;;5022952;28;20021;-78
2023/05/05 09:37:06;;;;;;;3.33;2.83;;;;;;;;;;5011714;28;20062;-77
2023/05/05 09:39:31;;;;;;;3.20;2.90;;;;;;;;;;4986101;28;20034;-77
2023/05/05 09:41:57;;;;;;;4.47;3.40;;;;;;;;;;5021172;28;20472;-77
2023/05/05 09:44:33;;;;;;;3.35;2.33;;;;;;;;;;5016290;28;20045;-76
2023/05/05 09:46:58;;;;;;;3.13;2.88;;;;;;;;;;5011535;28;20025;-78
2023/05/05 09:49:25;;;;;;;2.92;2.28;;;;;;;;;;5015930;28;20460;-77
2023/05/05 09:51:51;;;;;;;3.75;2.53;;;;;;;;;;5016240;28;20044;-77
2023/05/05 09:54:28;;;;;;;2.92;2.47;;;;;;;;;;5011017;28;20859;-82
2023/05/05 09:56:55;;;;;;;2.40;2.20;;;;;;;;;;5020656;28;20083;-76
2023/05/05 09:59:21;;;;;;;3.10;2.80;;;;;;;;;;5017998;28;20013;-77
2023/05/05 10:01:47;;;;;;;2.70;2.40;;;;;;;;;;5013176;28;20569;-76
2023/05/05 10:04:26;;;;;;;2.55;2.38;;;;;;;;;;5013140;28;20424;-76
2023/05/05 10:06:53;;;;;;;7.40;3.15;;;;;;;;;;5007978;28;20491;-76
2023/05/05 10:09:18;;;;;;;3.22;2.80;;;;;;;;;;5013744;28;20044;-77
2023/05/05 10:11:45;;;;;;;4.53;3.30;;;;;;;;;;5008185;28;20064;-76
2023/05/05 10:14:12;;;;;;;2.85;2.65;;;;;;;;;;5010184;28;20051;-76
2023/05/05 10:16:41;;;;;;;3.55;3.25;;;;;;;;;;5015709;28;20036;-77
2023/05/05 10:19:06;;;;;;;3.30;3.10;;;;;;;;;;5017813;28;20029;-78
2023/05/05 10:21:33;;;;;;;3.57;3.27;;;;;;;;;;4999423;28;20107;-78
2023/05/05 10:24:18;;;;;;;3.35;3.15;;;;;;;;;;5017482;28;20300;-76
2023/05/05 10:26:45;;;;;;;2.90;2.70;;;;;;;;;;4993525;28;20021;-80
2023/05/05 10:29:15;;;;;;;3.60;3.20;;;;;;;;;;5016330;28;20029;-78
2023/05/05 10:31:40;;;;;;;3.72;3.50;;;;;;;;;;5023013;28;20021;-79
2023/05/05 10:34:08;;;;;;;3.38;3.08;;;;;;;;;;5016460;28;20033;-79
2023/05/05 10:36:35;;;;;;;4.63;2.83;;;;;;;;;;5019647;28;20025;-78
2023/05/05 10:39:01;;;;;;;3.75;3.45;;;;;;;;;;4987123;28;20022;-78
2023/05/05 10:41:27;;;;;;;2.78;2.58;;;;;;;;;;5012796;28;20866;-78
2023/05/05 10:43:57;;;;;;;3.45;3.17;;;;;;;;;;5020602;28;20116;-78
2023/05/05 10:46:22;;;;;;;3.30;3.00;;;;;;;;;;5001669;28;20078;-79
2023/05/05 10:49:00;;;;;;;3.65;3.35;;;;;;;;;;5016936;28;20025;-79
2023/05/05 10:51:26;;;;;;;3.63;3.33;;;;;;;;;;5021929;28;20067;-79
2023/05/05 10:54:01;;;;;;;3.70;3.40;;;;;;;;;;5002333;28;20403;-79
2023/05/05 10:56:30;;;;;;;3.85;3.60;;;;;;;;;;5021473;28;20533;-79
2023/05/05 10:58:55;;;;;;;3.60;3.30;;;;;;;;;;5020167;28;20519;-80
2023/05/05 11:01:49;;;;;;;3.42;3.22;;;;;;;;;;5015511;28;20294;-79
2023/05/05 11:04:22;;;;;;;3.88;3.65;;;;;;;;;;4998205;28;20037;-79
2023/05/05 11:07:06;;;;;;;3.47;3.28;;;;;;;;;;5000567;28;20563;-77
2023/05/05 11:09:31;;;;;;;3.63;3.40;;;;;;;;;;5016120;28;20029;-81
2023/05/05 11:12:03;;;;;;;3.78;3.30;;;;;;;;;;5021043;28;20441;-81
2023/05/05 11:14:28;;;;;;;3.90;3.60;;;;;;;;;;5020257;28;20025;-77
2023/05/05 11:16:54;;;;;;;4.15;3.50;;;;;;;;;;5020598;28;20025;-76
2023/05/05 11:19:38;;;;;;;2.80;2.60;;;;;;;;;;5005565;28;20260;-76
2023/05/05 11:22:03;;;;;;;4.32;2.85;;;;;;;;;;5008633;28;20463;-76
2023/05/05 11:24:29;;;;;;;3.50;3.30;;;;;;;;;;5004441;28;20034;-77
2023/05/05 11:26:54;;;;;;;3.53;3.33;;;;;;;;;;5018509;28;20492;-76
2023/05/05 11:29:19;;;;;;;3.33;3.13;;;;;;;;;;5020247;28;20399;-77
2023/05/05 11:31:46;;;;;;;3.67;3.30;;;;;;;;;;5018235;28;20267;-77
2023/05/05 11:34:27;;;;;;;3.70;3.40;;;;;;;;;;5009231;28;20025;-76
2023/05/05 11:36:55;;;;;;;3.72;3.42;;;;;;;;;;5013130;28;20039;-79
2023/05/05 11:39:24;;;;;;;3.25;3.05;;;;;;;;;;5008530;28;20416;-76
2023/05/05 11:41:50;;;;;;;;;;;;;;;;;;5018063;28;20084;-76
2023/05/05 11:44:19;;;;;;;4.50;3.53;;;;;;;;;;5016119;28;19921;-76
2023/05/05 11:46:50;;;;;;;3.30;3.10;;;;;;;;;;5011292;28;20650;-76
2023/05/05 11:49:45;;;;;;;3.70;3.40;;;;;;;;;;5018526;28;20033;-76
2023/05/05 11:52:11;;;;;;;3.40;3.13;;;;;;;;;;4985545;28;20130;-76
2023/05/05 11:54:46;;;;;;;3.13;2.92;;;;;;;;;;5009539;28;20133;-76
2023/05/05 11:57:11;;;;;;;3.50;3.30;;;;;;;;;;5020383;28;20042;-76
2023/05/05 11:59:48;;;;;;;3.70;3.40;;;;;;;;;;5020335;28;20044;-77
2023/05/05 12:02:16;;;;;;;3.45;3.25;;;;;;;;;;5020358;28;20066;-76
2023/05/05 12:04:42;;;;;;;4.13;3.80;;;;;;;;;;5019146;28;20041;-76
2023/05/05 12:07:12;;;;;;;3.70;3.50;;;;;;;;;;5005694;28;20017;-75
2023/05/05 12:09:41;;;;;;;4.15;3.75;;;;;;;;;;5005926;28;20032;-76
2023/05/05 12:12:06;;;;;;;3.90;3.70;;;;;;;;;;5003300;28;20104;-75
2023/05/05 12:14:33;;;;;;;4.73;3.70;;;;;;;;;;5005003;28;20575;-76
2023/05/05 12:17:07;;;;;;;3.78;3.47;;;;;;;;;;5005720;28;20335;-76
2023/05/05 12:19:33;;;;;;;4.88;4.45;;;;;;;;;;5002828;28;20030;-76
2023/05/05 12:21:58;;;;;;;4.38;4.07;;;;;;;;;;5008679;28;20048;-77
2023/05/05 12:24:23;;;;;;;5.05;3.95;;;;;;;;;;5019228;28;20029;-77
2023/05/05 12:26:49;;;;;;;4.47;4.18;;;;;;;;;;5015089;28;20540;-77
2023/05/05 12:29:22;;;;;;;4.60;4.30;;;;;;;;;;5014523;28;20403;-76
2023/05/05 12:31:48;;;;;;;5.07;4.68;;;;;;;;;;5015601;28;20032;-77
2023/05/05 12:34:14;;;;;;;4.35;4.10;;;;;;;;;;4997223;28;20025;-76
2023/05/05 12:36:40;;;;;;;4.70;4.32;;;;;;;;;;5011999;28;20029;-76
2023/05/05 12:39:05;;;;;;;3.80;3.50;;;;;;;;;;5008636;28;20032;-77
2023/05/05 12:41:31;;;;;;;3.60;3.30;;;;;;;;;;5016437;28;20017;-77
2023/05/05 12:43:57;;;;;;;4.43;4.13;;;;;;;;;;5005820;28;20060;-77
2023/05/05 12:46:23;;;;;;;3.67;3.47;;;;;;;;;;5007548;28;20030;-77
2023/05/05 12:49:03;;;;;;;3.78;3.58;;;;;;;;;;5007504;28;20406;-78
2023/05/05 12:51:30;;;;;;;4.35;3.97;;;;;;;;;;5015146;28;20090;-77
2023/05/05 12:54:04;;;;;;;3.97;3.67;;;;;;;;;;5006777;28;20083;-77
2023/05/05 12:56:29;;;;;;;4.10;3.80;;;;;;;;;;5015624;28;20033;-77
2023/05/05 12:58:55;;;;;;;4.43;4.13;;;;;;;;;;5010722;28;20056;-76
2023/05/05 13:01:20;;;;;;;3.78;3.40;;;;;;;;;;5019616;28;20038;-77
2023/05/05 13:03:46;;;;;;;5.53;3.55;;;;;;;;;;5018380;28;20095;-78
2023/05/05 13:06:21;;;;;;;6.10;4.55;;;;;;;;;;5000426;28;20032;-77
2023/05/05 13:08:46;;;;;;;4.22;3.83;;;;;;;;;;5013794;28;20030;-79
2023/05/05 13:11:12;;;;;;;4.40;4.05;;;;;;;;;;5001145;28;20080;-80
2023/05/05 13:13:37;;;;;;;3.97;3.67;;;;;;;;;;5019075;28;20029;-81
2023/05/05 13:16:03;;;;;;;5.40;4.35;;;;;;;;;;5018811;28;20014;-85
2023/05/05 13:18:28;;;;;;;4.18;3.83;;;;;;;;;;5019582;28;20108;-83
2023/05/05 13:20:53;;;;;;;4.28;3.97;;;;;;;;;;5019063;28;20793;-82
2023/05/05 13:23:18;;;;;;;4.45;4.15;;;;;;;;;;5019027;28;20083;-79
2023/05/05 13:25:44;;;;;;;4.95;4.65;;;;;;;;;;5011327;28;20065;-79
2023/05/05 13:28:09;;;;;;;5.40;5.00;;;;;;;;;;5011826;28;20099;-80
2023/05/05 13:30:34;;;;;;;4.82;4.50;;;;;;;;;;4987383;28;20033;-85
2023/05/05 13:33:00;;;;;;;4.25;3.95;;;;;;;;;;5011722;28;20097;-80
2023/05/05 13:35:26;;;;;;;4.97;4.15;;;;;;;;;;5006858;28;20376;-79
2023/05/05 13:37:51;;;;;;;5.85;3.83;;;;;;;;;;5017693;28;20561;-81
2023/05/05 13:40:16;;;;;;;4.28;3.97;;;;;;;;;;5019276;28;20400;-80
2023/05/05 13:42:42;;;;;;;7.30;4.63;;;;;;;;;;5019211;28;20100;-80
2023/05/05 13:45:07;;;;;;;4.47;4.18;;;;;;;;;;5017506;28;20064;-85
2023/05/05 13:47:32;;;;;;;4.55;4.15;;;;;;;;;;4981333;28;20080;-86
2023/05/05 13:49:58;;;;;;;4.47;4.18;;;;;;;;;;5011557;28;20494;-85
2023/05/05 13:52:23;;;;;;;4.88;4.35;;;;;;;;;;5011083;28;20044;-85
2023/05/05 13:54:48;;;;;;;4.40;4.05;;;;;;;;;;5017220;28;20017;-86
2023/05/05 13:57:15;;;;;;;6.18;3.80;;;;;;;;;;5015656;28;20120;-79
2023/05/05 13:59:41;;;;;;;4.20;3.90;;;;;;;;;;5016024;28;20196;-86
2023/05/05 14:02:06;;;;;;;5.53;4.40;;;;;;;;;;5011699;28;20026;-80
2023/05/05 14:04:31;;;;;;;4.57;4.28;;;;;;;;;;4998820;28;20037;-83
2023/05/05 14:06:57;;;;;;;5.00;3.90;;;;;;;;;;5023062;28;20053;-82
2023/05/05 14:09:22;;;;;;;4.25;3.85;;;;;;;;;;5021963;28;20076;-81
2023/05/05 14:11:47;;;;;;;4.32;4.03;;;;;;;;;;5004956;28;20010;-86
2023/05/05 14:14:13;;;;;;;5.72;4.20;;;;;;;;;;5002066;28;20111;-87
2023/05/05 14:16:46;;;;;;;4.07;3.78;;;;;;;;;;4989920;28;20037;-88
2023/05/05 14:19:11;;;;;;;4.63;4.18;;;;;;;;;;4992151;28;20422;-85
2023/05/05 14:21:37;;;;;;;3.90;3.60;;;;;;;;;;5020149;28;20025;-84
2023/05/05 14:24:02;;;;;;;4.13;3.72;;;;;;;;;;5004427;28;20522;-85
2023/05/05 14:26:28;;;;;;;4.30;3.90;;;;;;;;;;5022986;28;20403;-86
2023/05/05 14:28:53;;;;;;;4.10;3.80;;;;;;;;;;5022103;28;20025;-86
2023/05/05 14:31:18;;;;;;;4.45;4.13;;;;;;;;;;5021929;28;20048;-84